createdAt,value
2018-11-23T00:02:15.902Z,19.90
2018-11-23T00:04:44.324Z,20.87
2018-11-23T00:07:12.729Z,18.93
2018-11-23T00:09:41.153Z,20.20
2018-11-23T00:12:09.598Z,20.20
2018-11-23T00:14:38.116Z,20.23
2018-11-23T00:17:06.503Z,21.33
2018-11-23T00:19:34.930Z,21.13
2018-11-23T00:22:03.320Z,19.33
2018-11-23T00:24:32.085Z,19.13
2018-11-23T00:27:01.056Z,20.97
2018-11-23T00:29:29.442Z,21.20
2018-11-23T00:31:57.852Z,21.03
2018-11-23T00:34:26.314Z,21.10
2018-11-23T00:36:54.722Z,21.80
2018-11-23T00:39:23.125Z,20.47
2018-11-23T00:41:51.693Z,20.23
2018-11-23T00:44:20.106Z,19.90
2018-11-23T00:46:48.491Z,20.00
2018-11-23T00:49:16.973Z,19.73
2018-11-23T00:51:45.443Z,20.33
2018-11-23T00:54:13.837Z,19.53
2018-11-23T00:56:42.254Z,20.57
2018-11-23T00:59:10.626Z,20.80
2018-11-23T01:02:15.595Z,19.27
2018-11-23T01:04:43.991Z,19.57
2018-11-23T01:07:12.407Z,17.93
2018-11-23T01:09:40.953Z,19.33
2018-11-23T01:12:09.380Z,19.37
2018-11-23T01:14:38.555Z,19.73
2018-11-23T01:17:06.927Z,20.63
2018-11-23T01:19:35.373Z,20.80
2018-11-23T01:22:03.749Z,21.07
2018-11-23T01:24:32.133Z,20.27
2018-11-23T01:27:00.496Z,21.00
2018-11-23T01:29:29.112Z,18.73
2018-11-23T01:31:57.523Z,20.63
2018-11-23T01:34:25.945Z,20.27
2018-11-23T01:36:54.367Z,20.73
2018-11-23T01:39:22.749Z,19.90
2018-11-23T01:41:51.147Z,21.20
2018-11-23T01:44:19.507Z,20.07
2018-11-23T01:46:47.884Z,20.50
2018-11-23T01:49:16.268Z,20.77
2018-11-23T01:51:44.634Z,21.57
2018-11-23T01:54:13.044Z,20.17
2018-11-23T01:56:41.453Z,19.47
2018-11-23T01:59:09.835Z,21.17
2018-11-23T02:01:38.250Z,20.57
2018-11-23T02:04:06.640Z,20.70
2018-11-23T02:06:35.027Z,20.47
2018-11-23T02:09:08.052Z,21.33
2018-11-23T02:11:36.423Z,21.37
2018-11-23T02:14:04.835Z,22.57
2018-11-23T02:16:33.229Z,22.07
2018-11-23T02:19:01.755Z,21.77
2018-11-23T02:21:30.221Z,22.30
2018-11-23T02:23:58.702Z,21.93
2018-11-23T02:26:27.108Z,22.03
2018-11-23T02:28:55.450Z,23.73
2018-11-23T02:31:29.237Z,22.43
2018-11-23T02:33:57.665Z,22.33
2018-11-23T02:36:26.046Z,23.23
2018-11-23T02:38:54.786Z,23.40
2018-11-23T02:41:23.213Z,24.50
2018-11-23T02:43:51.732Z,23.40
2018-11-23T02:46:20.649Z,24.90
2018-11-23T02:48:48.991Z,24.63
2018-11-23T02:51:17.358Z,26.70
2018-11-23T02:53:45.950Z,25.13
2018-11-23T02:56:14.486Z,27.07
2018-11-23T02:58:42.830Z,25.83
2018-11-23T03:01:11.208Z,26.90
2018-11-23T03:03:39.792Z,26.20
2018-11-23T03:06:08.220Z,27.07
2018-11-23T03:08:36.580Z,27.07
2018-11-23T03:11:05.264Z,27.60
2018-11-23T03:13:33.618Z,27.40
2018-11-23T03:16:02.012Z,28.20
2018-11-23T03:18:30.372Z,28.17
2018-11-23T03:20:58.878Z,30.47
2018-11-23T03:23:27.234Z,30.33
2018-11-23T03:25:55.628Z,29.10
2018-11-23T03:28:23.969Z,29.87
2018-11-23T03:30:52.400Z,30.57
2018-11-23T03:33:20.750Z,29.50
2018-11-23T03:35:49.180Z,31.07
2018-11-23T03:38:17.562Z,30.63
2018-11-23T03:40:45.955Z,30.03
2018-11-23T03:43:14.315Z,31.23
2018-11-23T03:45:43.449Z,32.00
2018-11-23T03:48:11.857Z,31.17
2018-11-23T03:50:40.231Z,31.57
2018-11-23T03:53:08.638Z,31.83
2018-11-23T03:55:36.960Z,33.23
2018-11-23T03:58:05.657Z,32.83
2018-11-23T04:00:34.057Z,32.37
2018-11-23T04:03:02.471Z,32.43
2018-11-23T04:05:30.823Z,34.40
2018-11-23T04:07:59.209Z,33.13
2018-11-23T04:10:27.567Z,32.17
2018-11-23T04:12:56.018Z,32.67
2018-11-23T04:15:25.000Z,33.33
2018-11-23T04:17:53.359Z,34.10
2018-11-23T04:20:22.649Z,31.87
2018-11-23T04:22:51.087Z,31.70
2018-11-23T04:25:19.466Z,32.57
2018-11-23T04:27:47.888Z,32.37
2018-11-23T04:30:17.427Z,33.70
2018-11-23T04:32:47.037Z,31.77
2018-11-23T04:35:16.738Z,34.40
2018-11-23T04:37:45.940Z,33.50
2018-11-23T04:40:15.105Z,35.27
2018-11-23T04:42:43.815Z,33.00
2018-11-23T04:45:12.735Z,35.27
2018-11-23T04:47:41.374Z,32.23
2018-11-23T04:50:11.929Z,34.17
2018-11-23T04:52:40.396Z,35.20
2018-11-23T04:55:09.425Z,36.33
2018-11-23T04:57:37.784Z,34.33
2018-11-23T05:00:08.983Z,34.87
2018-11-23T05:02:37.348Z,37.73
2018-11-23T05:05:07.255Z,36.37
2018-11-23T05:07:35.787Z,36.23
2018-11-23T05:10:04.803Z,35.03
2018-11-23T05:12:33.188Z,35.93
2018-11-23T05:15:01.625Z,34.80
2018-11-23T05:17:29.956Z,36.50
2018-11-23T05:19:58.755Z,35.43
2018-11-23T05:22:27.143Z,34.60
2018-11-23T05:24:55.677Z,35.87
2018-11-23T05:27:24.162Z,37.20
2018-11-23T05:29:52.560Z,35.10
2018-11-23T05:32:20.926Z,35.90
2018-11-23T05:34:49.335Z,38.37
2018-11-23T05:37:17.803Z,35.63
2018-11-23T05:39:46.342Z,35.73
2018-11-23T05:42:14.847Z,36.43
2018-11-23T05:44:43.308Z,36.43
2018-11-23T05:47:11.664Z,35.93
2018-11-23T05:49:40.038Z,35.57
2018-11-23T05:52:08.547Z,35.70
2018-11-23T05:54:36.921Z,34.77
2018-11-23T05:57:05.352Z,36.47
2018-11-23T05:59:33.766Z,37.47
2018-11-23T06:02:02.192Z,40.63
2018-11-23T06:04:30.582Z,37.13
2018-11-23T06:06:59.042Z,36.07
2018-11-23T06:09:27.430Z,37.07
2018-11-23T06:11:55.859Z,37.57
2018-11-23T06:14:24.253Z,39.10
2018-11-23T06:16:52.669Z,37.13
2018-11-23T06:19:21.021Z,36.67
2018-11-23T06:21:49.491Z,37.60
2018-11-23T06:24:17.968Z,35.57
2018-11-23T06:26:46.582Z,34.97
2018-11-23T06:29:14.990Z,35.67
2018-11-23T06:31:43.422Z,38.00
2018-11-23T06:34:12.573Z,37.53
2018-11-23T06:36:40.997Z,36.87
2018-11-23T06:39:09.832Z,35.33
2018-11-23T06:41:38.310Z,35.00
2018-11-23T06:44:06.725Z,37.33
2018-11-23T06:46:35.143Z,36.50
2018-11-23T06:49:03.545Z,35.83
2018-11-23T06:51:31.949Z,37.03
2018-11-23T06:54:00.389Z,36.43
2018-11-23T06:56:28.813Z,36.77
2018-11-23T06:58:57.183Z,37.70
2018-11-23T07:01:25.594Z,37.33
2018-11-23T07:03:54.045Z,40.10
2018-11-23T07:06:22.406Z,36.50
2018-11-23T07:08:52.568Z,38.33
2018-11-23T07:11:19.195Z,38.00
2018-11-23T07:13:47.579Z,38.13
2018-11-23T07:16:15.925Z,36.60
2018-11-23T07:18:44.314Z,36.10
2018-11-23T07:21:12.780Z,36.07
2018-11-23T07:23:41.143Z,38.37
2018-11-23T07:26:09.483Z,38.10
2018-11-23T07:28:37.874Z,38.10
2018-11-23T07:31:06.416Z,36.37
2018-11-23T07:33:34.887Z,36.20
2018-11-23T07:36:03.358Z,36.40
2018-11-23T07:38:31.788Z,36.90
2018-11-23T07:41:11.664Z,35.23
2018-11-23T07:43:40.315Z,38.00
2018-11-23T07:46:09.228Z,39.23
2018-11-23T07:48:37.680Z,36.60
2018-11-23T07:51:06.141Z,37.90
2018-11-23T07:53:34.689Z,38.77
2018-11-23T07:56:03.098Z,38.00
2018-11-23T07:58:31.625Z,36.67
2018-11-23T08:01:00.058Z,38.90
2018-11-23T08:03:28.518Z,34.50
2018-11-23T08:05:56.976Z,35.47
2018-11-23T08:08:25.443Z,35.77
2018-11-23T08:10:53.141Z,35.27
2018-11-23T08:13:21.653Z,37.23
2018-11-23T08:15:50.123Z,37.57
2018-11-23T08:18:18.563Z,37.20
2018-11-23T08:20:46.999Z,35.30
2018-11-23T08:23:15.415Z,38.30
2018-11-23T08:25:43.858Z,37.43
2018-11-23T08:28:12.233Z,36.77
2018-11-23T08:30:40.611Z,37.20
2018-11-23T08:33:08.958Z,37.37
2018-11-23T08:35:37.367Z,36.97
2018-11-23T08:38:05.898Z,37.07
2018-11-23T08:40:34.315Z,36.67
2018-11-23T08:43:02.665Z,34.50
2018-11-23T08:45:31.061Z,36.70
2018-11-23T08:47:59.465Z,35.23
2018-11-23T08:50:29.085Z,36.17
2018-11-23T08:52:57.510Z,34.23
2018-11-23T08:55:26.048Z,35.30
2018-11-23T08:57:54.445Z,35.97
2018-11-23T09:00:26.892Z,33.50
2018-11-23T09:02:56.963Z,36.70
2018-11-23T09:05:25.338Z,35.63
2018-11-23T09:07:54.816Z,33.93
2018-11-23T09:10:25.870Z,35.57
2018-11-23T09:12:55.910Z,35.00
2018-11-23T09:15:24.480Z,35.57
2018-11-23T09:17:53.008Z,33.07
2018-11-23T09:20:21.472Z,34.67
2018-11-23T09:22:49.947Z,36.00
2018-11-23T09:25:19.723Z,34.30
2018-11-23T09:27:48.174Z,35.27
2018-11-23T09:30:18.708Z,37.47
2018-11-23T09:32:47.735Z,36.47
2018-11-23T09:35:16.063Z,35.37
2018-11-23T09:37:45.788Z,36.27
2018-11-23T09:40:15.650Z,40.47
2018-11-23T09:42:44.086Z,35.83
2018-11-23T09:45:19.625Z,35.37
2018-11-23T09:47:49.152Z,35.73
2018-11-23T09:50:19.354Z,32.80
2018-11-23T09:52:49.019Z,35.30
2018-11-23T09:55:17.774Z,35.60
2018-11-23T09:57:46.182Z,34.77
2018-11-23T10:00:16.819Z,33.27
2018-11-23T10:02:46.088Z,33.27
2018-11-23T10:05:15.138Z,35.50
2018-11-23T10:07:44.883Z,35.43
2018-11-23T10:10:14.168Z,36.23
2018-11-23T10:12:43.507Z,34.37
2018-11-23T10:15:13.885Z,33.00
2018-11-23T10:17:42.508Z,35.30
2018-11-23T10:20:14.957Z,32.87
2018-11-23T10:22:43.887Z,32.77
2018-11-23T10:25:13.655Z,33.93
2018-11-23T10:27:42.689Z,33.00
2018-11-23T10:30:19.470Z,34.20
2018-11-23T10:32:48.959Z,33.67
2018-11-23T10:35:17.385Z,34.23
2018-11-23T10:37:46.959Z,32.40
2018-11-23T10:40:16.989Z,31.77
2018-11-23T10:42:45.594Z,32.20
2018-11-23T10:45:18.039Z,32.37
2018-11-23T10:47:47.031Z,33.57
2018-11-23T10:50:17.073Z,33.43
2018-11-23T10:52:45.613Z,33.60
2018-11-23T10:55:16.295Z,30.93
2018-11-23T10:57:44.743Z,31.93
2018-11-23T11:00:20.754Z,31.67
2018-11-23T11:02:55.065Z,33.37
2018-11-23T11:05:29.002Z,32.67
2018-11-23T11:07:59.076Z,30.13
2018-11-23T11:10:27.572Z,31.20
2018-11-23T11:12:56.128Z,33.53
2018-11-23T11:15:24.712Z,29.37
2018-11-23T11:17:53.166Z,29.87
2018-11-23T11:20:24.650Z,29.90
2018-11-23T11:22:53.055Z,29.90
2018-11-23T11:25:21.501Z,28.77
2018-11-23T11:27:49.901Z,28.37
2018-11-23T11:30:18.988Z,28.23
2018-11-23T11:32:48.053Z,28.03
2018-11-23T11:35:16.521Z,27.27
2018-11-23T11:37:45.343Z,28.60
2018-11-23T11:40:15.207Z,28.57
2018-11-23T11:42:43.940Z,29.10
2018-11-23T11:45:13.610Z,28.40
2018-11-23T11:47:42.645Z,27.77
2018-11-23T11:50:11.822Z,27.00
2018-11-23T11:52:41.505Z,28.00
2018-11-23T11:55:12.396Z,28.60
2018-11-23T11:57:40.967Z,28.17
2018-11-23T12:00:11.839Z,28.90
2018-11-23T12:02:40.276Z,26.73
2018-11-23T12:05:10.105Z,26.30
2018-11-23T12:07:38.573Z,26.43
2018-11-23T12:10:10.560Z,27.77
2018-11-23T12:12:39.270Z,28.67
2018-11-23T12:15:09.531Z,27.00
2018-11-23T12:17:37.928Z,28.70
2018-11-23T12:20:08.472Z,29.00
2018-11-23T12:22:36.918Z,28.60
2018-11-23T12:25:05.501Z,29.63
2018-11-23T12:27:33.889Z,28.87
2018-11-23T12:30:02.390Z,28.70
2018-11-23T12:32:30.728Z,28.33
2018-11-23T12:34:59.091Z,27.97
2018-11-23T12:37:27.497Z,28.07
2018-11-23T12:39:55.889Z,28.00
2018-11-23T12:42:24.238Z,27.47
2018-11-23T12:44:52.698Z,28.10
2018-11-23T12:47:21.128Z,28.17
2018-11-23T12:49:49.535Z,26.77
2018-11-23T12:52:17.910Z,27.37
2018-11-23T12:54:46.294Z,26.93
2018-11-23T12:57:14.647Z,28.70
2018-11-23T12:59:43.040Z,27.80
2018-11-23T13:02:11.435Z,26.50
2018-11-23T13:04:39.808Z,27.30
2018-11-23T13:07:08.184Z,27.03
2018-11-23T13:09:36.568Z,27.27
2018-11-23T13:12:05.246Z,28.00
2018-11-23T13:14:33.594Z,27.57
2018-11-23T13:17:01.936Z,27.80
2018-11-23T13:19:30.389Z,28.37
2018-11-23T13:21:58.763Z,27.20
2018-11-23T13:24:27.118Z,27.63
2018-11-23T13:26:55.528Z,28.30
2018-11-23T13:29:23.885Z,29.77
2018-11-23T13:31:52.284Z,28.17
2018-11-23T13:34:20.638Z,30.87
2018-11-23T13:36:49.065Z,29.10
2018-11-23T13:39:17.423Z,29.20
2018-11-23T13:41:45.812Z,28.20
2018-11-23T13:44:14.257Z,29.17
2018-11-23T13:46:42.627Z,28.53
2018-11-23T13:49:11.011Z,29.70
2018-11-23T13:51:39.397Z,29.53
2018-11-23T13:54:07.799Z,28.97
2018-11-23T13:56:36.147Z,29.33
2018-11-23T13:59:04.939Z,30.27
2018-11-23T14:01:33.364Z,31.33
2018-11-23T14:04:01.820Z,30.90
2018-11-23T14:06:30.244Z,30.00
2018-11-23T14:08:59.297Z,30.13
2018-11-23T14:11:27.741Z,30.33
2018-11-23T14:13:56.197Z,29.00
2018-11-23T14:16:25.369Z,29.33
2018-11-23T14:18:53.750Z,29.80
2018-11-23T14:21:22.253Z,29.10
2018-11-23T14:23:50.584Z,28.93
2018-11-23T14:26:18.941Z,31.07
2018-11-23T14:28:47.306Z,30.70
2018-11-23T14:31:15.652Z,28.60
2018-11-23T14:33:44.021Z,29.83
2018-11-23T14:36:12.357Z,30.07
2018-11-23T14:38:40.808Z,29.97
2018-11-23T14:41:09.185Z,29.80
2018-11-23T14:43:37.559Z,29.43
2018-11-23T14:46:05.956Z,29.53
2018-11-23T14:48:34.357Z,31.23
2018-11-23T14:51:02.746Z,29.17
2018-11-23T14:53:31.151Z,30.90
2018-11-23T14:55:59.499Z,31.97
2018-11-23T14:58:27.901Z,31.43
2018-11-23T15:00:56.303Z,30.67
2018-11-23T15:03:24.725Z,31.77
2018-11-23T15:05:59.818Z,31.67
2018-11-23T15:08:28.195Z,31.33
2018-11-23T15:10:56.578Z,31.67
2018-11-23T15:13:24.996Z,33.10
2018-11-23T15:15:53.374Z,31.03
2018-11-23T15:18:21.712Z,33.10
2018-11-23T15:20:50.079Z,31.73
2018-11-23T15:23:19.797Z,32.80
2018-11-23T15:25:48.178Z,31.80
2018-11-23T15:28:16.622Z,32.37
2018-11-23T15:30:45.888Z,31.97
2018-11-23T15:33:15.743Z,32.33
2018-11-23T15:35:44.693Z,32.17
2018-11-23T15:38:18.581Z,32.00
2018-11-23T15:40:47.025Z,32.30
2018-11-23T15:43:16.427Z,30.83
2018-11-23T15:45:44.851Z,32.20
2018-11-23T15:48:13.283Z,32.77
2018-11-23T15:50:42.609Z,33.37
2018-11-23T15:53:12.546Z,33.80
2018-11-23T15:55:41.327Z,32.67
2018-11-23T15:58:11.129Z,32.07
2018-11-23T16:00:40.754Z,33.20
2018-11-23T16:03:10.541Z,31.07
2018-11-23T16:05:39.241Z,33.67
2018-11-23T16:08:10.145Z,33.30
2018-11-23T16:10:39.133Z,33.00
2018-11-23T16:13:11.275Z,32.37
2018-11-23T16:15:37.779Z,33.30
2018-11-23T16:18:06.671Z,33.10
2018-11-23T16:20:37.583Z,32.97
2018-11-23T16:23:07.729Z,31.43
2018-11-23T16:25:36.187Z,35.30
2018-11-23T16:28:06.028Z,34.13
2018-11-23T16:30:36.003Z,33.40
2018-11-23T16:33:05.780Z,32.10
2018-11-23T16:35:35.484Z,32.43
2018-11-23T16:38:05.471Z,33.30
2018-11-23T16:40:35.190Z,33.50
2018-11-23T16:43:04.018Z,32.03
2018-11-23T16:45:33.672Z,33.83
2018-11-23T16:48:03.440Z,33.33
2018-11-23T16:50:32.059Z,32.37
2018-11-23T16:53:01.138Z,32.90
2018-11-23T16:55:29.632Z,32.60
2018-11-23T16:57:59.749Z,33.60
2018-11-23T17:00:33.281Z,32.57
2018-11-23T17:03:03.224Z,33.63
2018-11-23T17:05:34.730Z,34.33
2018-11-23T17:08:03.163Z,32.60
2018-11-23T17:10:32.545Z,33.07
2018-11-23T17:13:01.196Z,33.17
2018-11-23T17:15:30.033Z,34.77
2018-11-23T17:17:58.479Z,32.43
2018-11-23T17:20:28.382Z,33.83
2018-11-23T17:22:58.292Z,33.10
2018-11-23T17:25:27.517Z,33.03
2018-11-23T17:27:57.159Z,32.70
2018-11-23T17:30:26.843Z,33.47
2018-11-23T17:32:55.573Z,34.07
2018-11-23T17:35:24.274Z,32.40
2018-11-23T17:37:52.807Z,33.73
2018-11-23T17:40:22.641Z,34.03
2018-11-23T17:42:51.973Z,33.13
2018-11-23T17:45:22.208Z,33.57
2018-11-23T17:47:51.055Z,33.63
2018-11-23T17:50:20.858Z,33.90
2018-11-23T17:52:49.920Z,34.97
2018-11-23T17:55:18.309Z,32.77
2018-11-23T17:57:47.305Z,33.87
2018-11-23T18:00:18.997Z,34.30
2018-11-23T18:02:47.955Z,33.40
2018-11-23T18:05:17.184Z,35.47
2018-11-23T18:07:45.737Z,34.90
2018-11-23T18:10:16.263Z,35.53
2018-11-23T18:12:45.170Z,32.20
2018-11-23T18:15:15.761Z,36.17
2018-11-23T18:17:44.808Z,37.33
2018-11-23T18:20:14.614Z,35.50
2018-11-23T18:22:43.474Z,34.03
2018-11-23T18:25:14.394Z,33.63
2018-11-23T18:27:43.623Z,34.93
2018-11-23T18:30:12.647Z,34.57
2018-11-23T18:32:41.051Z,34.77
2018-11-23T18:35:10.856Z,31.90
2018-11-23T18:37:39.236Z,32.60
2018-11-23T18:40:09.811Z,34.67
2018-11-23T18:42:38.192Z,34.50
2018-11-23T18:45:09.621Z,34.60
2018-11-23T18:47:38.233Z,35.20
2018-11-23T18:50:09.354Z,32.50
2018-11-23T18:52:37.971Z,32.27
2018-11-23T18:55:06.991Z,31.43
2018-11-23T18:57:35.447Z,31.17
2018-11-23T19:00:03.916Z,30.93
2018-11-23T19:02:32.323Z,30.87
2018-11-23T19:05:00.700Z,32.87
2018-11-23T19:07:29.179Z,28.60
2018-11-23T19:09:57.610Z,32.00
2018-11-23T19:12:26.000Z,32.50
2018-11-23T19:14:54.437Z,32.23
2018-11-23T19:17:22.838Z,30.87
2018-11-23T19:19:51.279Z,30.20
2018-11-23T19:22:19.672Z,29.50
2018-11-23T19:24:48.092Z,27.83
2018-11-23T19:27:16.463Z,27.23
2018-11-23T19:29:44.875Z,28.13
2018-11-23T19:32:13.303Z,27.27
2018-11-23T19:35:44.632Z,26.57
2018-11-23T19:38:13.048Z,26.83
2018-11-23T19:40:41.401Z,27.60
2018-11-23T19:43:09.908Z,28.40
2018-11-23T19:45:38.261Z,26.33
2018-11-23T19:48:06.857Z,26.00
2018-11-23T19:50:35.233Z,26.20
2018-11-23T19:53:03.687Z,28.00
2018-11-23T19:55:32.210Z,28.47
2018-11-23T19:58:00.599Z,29.73
2018-11-23T20:00:29.058Z,28.00
2018-11-23T20:02:58.549Z,27.43
2018-11-23T20:05:26.976Z,27.83
2018-11-23T20:07:56.311Z,27.13
2018-11-23T20:10:25.223Z,27.53
2018-11-23T20:12:55.079Z,28.70
2018-11-23T20:15:23.549Z,26.97
2018-11-23T20:17:51.960Z,27.73
2018-11-23T20:20:20.492Z,26.47
2018-11-23T20:22:49.803Z,26.57
2018-11-23T20:25:19.209Z,27.13
2018-11-23T20:27:48.694Z,26.93
2018-11-23T20:30:17.793Z,26.63
2018-11-23T20:32:46.191Z,27.70
2018-11-23T20:35:15.597Z,25.83
2018-11-23T20:37:43.988Z,26.77
2018-11-23T20:40:16.404Z,27.70
2018-11-23T20:42:44.816Z,26.27
2018-11-23T20:45:13.433Z,28.60
2018-11-23T20:47:41.920Z,27.13
2018-11-23T20:50:14.356Z,28.33
2018-11-23T20:52:42.935Z,26.17
2018-11-23T20:55:16.204Z,27.63
2018-11-23T20:57:44.590Z,27.13
2018-11-23T21:00:14.014Z,29.03
2018-11-23T21:02:42.495Z,28.20
2018-11-23T21:05:11.997Z,31.30
2018-11-23T21:07:40.464Z,29.47
2018-11-23T21:10:20.069Z,31.47
2018-11-23T21:12:40.997Z,33.93
2018-11-23T21:15:16.343Z,33.07
2018-11-23T21:17:44.741Z,28.27
2018-11-23T21:20:13.225Z,29.33
2018-11-23T21:22:41.614Z,28.27
2018-11-23T21:25:10.631Z,29.33
2018-11-23T21:27:39.047Z,30.77
2018-11-23T21:30:16.278Z,31.40
2018-11-23T21:32:44.668Z,29.30
2018-11-23T21:35:13.460Z,28.43
2018-11-23T21:37:41.823Z,31.03
2018-11-23T21:40:11.416Z,31.03
2018-11-23T21:42:39.838Z,31.50
2018-11-23T21:45:11.737Z,31.10
2018-11-23T21:47:40.371Z,31.53
2018-11-23T21:50:14.551Z,32.83
2018-11-23T21:52:42.926Z,31.50
2018-11-23T21:55:16.501Z,31.90
2018-11-23T21:57:44.932Z,32.80
2018-11-23T22:00:14.448Z,32.87
2018-11-23T22:02:42.851Z,32.50
2018-11-23T22:05:11.438Z,31.53
2018-11-23T22:07:39.829Z,34.37
2018-11-23T22:10:10.627Z,33.10
2018-11-23T22:12:39.054Z,33.20
2018-11-23T22:15:09.616Z,33.57
2018-11-23T22:17:38.148Z,34.50
2018-11-23T22:20:09.779Z,34.73
2018-11-23T22:22:38.159Z,34.77
2018-11-23T22:25:08.347Z,34.20
2018-11-23T22:27:36.748Z,35.93
2018-11-23T22:30:08.781Z,36.17
2018-11-23T22:32:37.168Z,36.50
2018-11-23T22:35:07.097Z,34.90
2018-11-23T22:37:35.498Z,35.27
2018-11-23T22:40:04.401Z,36.37
2018-11-23T22:42:32.900Z,33.87
2018-11-23T22:45:01.336Z,35.80
2018-11-23T22:47:29.691Z,35.07
2018-11-23T22:49:58.176Z,33.57
2018-11-23T22:52:26.553Z,37.13
2018-11-23T22:54:54.980Z,34.77
2018-11-23T22:57:23.392Z,35.77
2018-11-23T22:59:51.745Z,35.87
2018-11-23T23:02:20.141Z,37.63
2018-11-23T23:04:48.568Z,35.80
2018-11-23T23:07:16.971Z,35.47
2018-11-23T23:09:45.347Z,37.20
2018-11-23T23:12:13.883Z,35.77
2018-11-23T23:14:42.240Z,35.30
2018-11-23T23:17:10.606Z,35.90
2018-11-23T23:19:38.989Z,37.77
2018-11-23T23:22:07.349Z,34.73
2018-11-23T23:24:35.774Z,36.93
2018-11-23T23:27:04.172Z,36.67
2018-11-23T23:29:32.592Z,36.60
2018-11-23T23:32:01.068Z,36.17
2018-11-23T23:34:29.465Z,38.50
2018-11-23T23:36:57.830Z,36.73
2018-11-23T23:39:26.256Z,36.23
2018-11-23T23:41:55.373Z,38.03
2018-11-23T23:44:23.855Z,36.43
2018-11-23T23:46:52.218Z,37.37
2018-11-23T23:49:20.669Z,37.27
2018-11-23T23:51:48.999Z,36.67
2018-11-23T23:54:17.460Z,37.13
2018-11-23T23:56:45.878Z,37.53
2018-11-23T23:59:14.374Z,37.17
